Time;durP1;ratioP1;P1;durP2;ratioP2;P2;SDS_P1;SDS_P2;PMS_P1;PMS_P2;Temp;Humidity;BMP_temperature;BMP_pressure;BME280_temperature;BME280_humidity;BME280_pressure;Samples;Min_cycle;Max_cycle;Signal;HPM_P1;HPM_P2
2022/10/24 00:01:35;;;;;;;;;;;;;;;20.53;100.00;98157.56;5059181;28;20966;-48
2022/10/24 00:04:01;;;;;;;;;;;;;;;20.50;100.00;98152.56;5058679;28;20341;-47
2022/10/24 00:06:26;;;;;;;;;;;;;;;20.69;100.00;98160.50;5059674;28;19975;-47
2022/10/24 00:08:51;;;;;;;;;;;;;;;20.52;100.00;98154.09;5057284;28;19921;-47
2022/10/24 00:11:19;;;;;;;;;;;;;;;20.18;100.00;98153.53;5060354;28;20919;-47
2022/10/24 00:13:44;;;;;;;;;;;;;;;20.48;100.00;98164.00;5056590;28;20004;-46
2022/10/24 00:16:09;;;;;;;;;;;;;;;19.69;100.00;98155.06;5058464;28;20073;-47
2022/10/24 00:18:35;;;;;;;;;;;;;;;19.97;100.00;98159.63;5059365;28;20352;-47
2022/10/24 00:21:00;;;;;;;;;;;;;;;19.72;100.00;98170.47;5058816;28;19925;-47
2022/10/24 00:23:25;;;;;;;;;;;;;;;19.78;100.00;98156.91;5057493;28;19920;-47
2022/10/24 00:25:50;;;;;;;;;;;;;;;19.72;100.00;98162.63;5059499;28;20478;-47
2022/10/24 00:28:16;;;;;;;;;;;;;;;19.37;100.00;98166.34;5059081;28;19920;-47
2022/10/24 00:30:41;;;;;;;;;;;;;;;19.17;100.00;98166.16;5060391;28;20325;-47
2022/10/24 00:33:06;;;;;;;;;;;;;;;19.19;100.00;98177.31;5059840;28;20377;-45
2022/10/24 00:35:31;;;;;;;;;;;;;;;19.49;100.00;98165.31;5057098;28;19920;-45
2022/10/24 00:37:57;;;;;;;;;;;;;;;19.88;100.00;98164.78;5056364;28;20028;-46
2022/10/24 00:40:22;;;;;;;;;;;;;;;19.92;100.00;98153.13;5058950;28;19971;-47
2022/10/24 00:42:47;;;;;;;;;;;;;;;20.25;100.00;98145.06;5059841;28;19997;-46
2022/10/24 00:45:31;;;;;;;;;;;;;;;20.32;100.00;98137.50;5057051;28;19972;-45
2022/10/24 00:47:56;;;;;;;;;;;;;;;19.98;100.00;98140.38;5057509;28;20408;-45
2022/10/24 00:50:22;;;;;;;;;;;;;;;20.19;100.00;98142.13;5059180;28;19920;-45
2022/10/24 00:52:47;;;;;;;;;;;;;;;20.32;100.00;98142.75;5058587;28;19920;-45
2022/10/24 00:55:12;;;;;;;;;;;;;;;20.32;100.00;98132.28;5058372;28;20020;-45
2022/10/24 00:57:48;;;;;;;;;;;;;;;20.52;100.00;98121.88;5060210;28;19917;-45
2022/10/24 01:00:15;;;;;;;;;;;;;;;19.77;100.00;98116.88;5055823;28;19942;-46
2022/10/24 01:02:41;;;;;;;;;;;;;;;19.35;100.00;98113.41;5057773;28;19924;-45
2022/10/24 01:05:06;;;;;;;;;;;;;;;20.08;100.00;98113.47;5057756;28;19932;-47
2022/10/24 01:07:38;;;;;;;;;;;;;;;19.63;100.00;98110.16;5057316;28;20011;-46
2022/10/24 01:10:22;;;;;;;;;;;;;;;19.71;100.00;98111.34;5057486;28;19927;-47
2022/10/24 01:12:50;;;;;;;;;;;;;;;19.48;100.00;98106.22;5058350;28;19920;-47
2022/10/24 01:15:34;;;;;;;;;;;;;;;20.05;100.00;98110.16;5057641;28;19924;-46
2022/10/24 01:18:02;;;;;;;;;;;;;;;20.44;100.00;98105.06;5057060;28;19982;-46
2022/10/24 01:20:42;;;;;;;;;;;;;;;19.36;100.00;98117.66;5055082;28;19982;-45
2022/10/24 01:23:13;;;;;;;;;;;;;;;19.79;100.00;98103.69;5057470;28;19924;-46
2022/10/24 01:25:44;;;;;;;;;;;;;;;20.11;100.00;98100.13;5058510;28;19928;-45
2022/10/24 01:28:14;;;;;;;;;;;;;;;20.56;100.00;98089.25;5057961;28;19926;-48
2022/10/24 01:30:40;;;;;;;;;;;;;;;20.58;100.00;98082.13;5056113;28;19916;-46
2022/10/24 01:33:09;;;;;;;;;;;;;;;20.43;100.00;98079.03;5055789;28;20450;-45
2022/10/24 01:35:49;;;;;;;;;;;;;;;20.62;100.00;98070.44;5057266;28;20391;-46
2022/10/24 01:38:22;;;;;;;;;;;;;;;20.68;100.00;98070.72;5056944;28;20300;-45
2022/10/24 01:40:57;;;;;;;;;;;;;;;20.24;100.00;98054.50;5059024;28;19924;-45
2022/10/24 01:43:30;;;;;;;;;;;;;;;20.59;100.00;98061.06;5056557;28;19931;-45
2022/10/24 01:45:57;;;;;;;;;;;;;;;20.37;100.00;98050.81;5055939;28;19928;-45
2022/10/24 01:48:23;;;;;;;;;;;;;;;20.68;100.00;98055.00;5053765;28;19928;-45
2022/10/24 01:50:49;;;;;;;;;;;;;;;20.54;100.00;98058.00;5056409;28;19920;-46
2022/10/24 01:53:14;;;;;;;;;;;;;;;20.22;100.00;98059.03;5055725;28;19973;-46
2022/10/24 01:55:40;;;;;;;;;;;;;;;20.15;100.00;98057.91;5058035;28;19941;-46
2022/10/24 01:58:06;;;;;;;;;;;;;;;20.32;100.00;98066.91;5055288;28;19932;-46
2022/10/24 02:00:31;;;;;;;;;;;;;;;20.73;100.00;98054.59;5053019;28;19925;-48
2022/10/24 02:02:58;;;;;;;;;;;;;;;20.95;100.00;98048.28;5057591;28;19924;-46
2022/10/24 02:05:33;;;;;;;;;;;;;;;20.32;100.00;98043.38;5057038;28;19973;-46
2022/10/24 02:08:03;;;;;;;;;;;;;;;20.08;100.00;98050.75;5056863;28;19964;-45
2022/10/24 02:10:30;;;;;;;;;;;;;;;19.85;100.00;98035.25;5055916;28;20366;-46
2022/10/24 02:13:09;;;;;;;;;;;;;;;19.69;100.00;98047.97;5056044;28;19967;-45
2022/10/24 02:15:35;;;;;;;;;;;;;;;20.34;100.00;98033.59;5055941;28;20399;-45
2022/10/24 02:18:01;;;;;;;;;;;;;;;19.23;100.00;98044.78;5055545;28;19920;-45
2022/10/24 02:20:28;;;;;;;;;;;;;;;19.15;100.00;98042.78;5056943;28;19978;-45
2022/10/24 02:22:56;;;;;;;;;;;;;;;19.43;100.00;98048.31;5038607;28;19998;-46
2022/10/24 02:25:23;;;;;;;;;;;;;;;19.04;100.00;98042.84;5056619;28;19963;-46
2022/10/24 02:27:49;;;;;;;;;;;;;;;19.79;100.00;98035.75;5055374;28;19920;-46
2022/10/24 02:30:17;;;;;;;;;;;;;;;19.49;100.00;98039.16;5056672;28;20003;-45
2022/10/24 02:32:44;;;;;;;;;;;;;;;19.40;100.00;98030.31;5055179;28;19920;-46
2022/10/24 02:35:10;;;;;;;;;;;;;;;19.92;100.00;98030.31;5055842;28;20023;-45
2022/10/24 02:37:36;;;;;;;;;;;;;;;20.36;100.00;98025.63;5056089;28;20011;-46
2022/10/24 02:40:03;;;;;;;;;;;;;;;19.97;100.00;98012.44;5056888;28;20416;-46
2022/10/24 02:42:28;;;;;;;;;;;;;;;19.62;100.00;98009.25;5059153;28;19960;-47
2022/10/24 02:44:53;;;;;;;;;;;;;;;20.39;100.00;98007.88;5059213;28;20397;-45
2022/10/24 02:47:19;;;;;;;;;;;;;;;19.72;100.00;98017.16;5056699;28;20023;-45
2022/10/24 02:49:44;;;;;;;;;;;;;;;19.56;100.00;98003.72;5060876;28;19931;-45
2022/10/24 02:52:09;;;;;;;;;;;;;;;19.88;100.00;98024.50;5060620;28;19977;-47
2022/10/24 02:54:34;;;;;;;;;;;;;;;19.63;100.00;98004.84;5059643;28;19949;-45
2022/10/24 02:57:01;;;;;;;;;;;;;;;19.89;100.00;98010.50;5060660;28;20602;-46
2022/10/24 02:59:26;;;;;;;;;;;;;;;19.83;100.00;98017.06;5060368;28;19920;-45
2022/10/24 03:01:51;;;;;;;;;;;;;;;20.17;100.00;98014.16;5059628;28;19924;-46
2022/10/24 03:04:16;;;;;;;;;;;;;;;20.30;100.00;98000.84;5060562;28;19920;-45
2022/10/24 03:06:42;;;;;;;;;;;;;;;20.29;100.00;98001.78;5057625;28;20382;-45
2022/10/24 03:09:07;;;;;;;;;;;;;;;19.88;100.00;98003.63;5057859;28;20272;-45
2022/10/24 03:11:32;;;;;;;;;;;;;;;20.39;100.00;98000.03;5058901;28;19920;-45
2022/10/24 03:13:57;;;;;;;;;;;;;;;20.34;100.00;98011.84;5060148;28;20299;-45
2022/10/24 03:16:23;;;;;;;;;;;;;;;20.55;100.00;97994.28;5060265;28;19927;-45
2022/10/24 03:18:49;;;;;;;;;;;;;;;20.48;100.00;98007.06;5059332;28;19934;-45
2022/10/24 03:21:14;;;;;;;;;;;;;;;20.40;100.00;97999.06;5060652;28;19931;-45
2022/10/24 03:23:39;;;;;;;;;;;;;;;20.42;100.00;98018.06;5059989;28;19920;-45
2022/10/24 03:26:04;;;;;;;;;;;;;;;19.90;100.00;98016.56;5058969;28;19924;-45
2022/10/24 03:28:30;;;;;;;;;;;;;;;19.49;100.00;98021.69;5059155;28;20377;-46
2022/10/24 03:30:55;;;;;;;;;;;;;;;19.55;100.00;98015.97;5061388;28;19920;-46
2022/10/24 03:33:21;;;;;;;;;;;;;;;19.92;100.00;98015.47;5059795;28;19920;-45
2022/10/24 03:35:46;;;;;;;;;;;;;;;19.83;100.00;98005.81;5058411;28;19920;-44
2022/10/24 03:38:11;;;;;;;;;;;;;;;19.63;100.00;97997.84;5057230;28;19920;-46
2022/10/24 03:40:36;;;;;;;;;;;;;;;19.57;100.00;98003.59;5059481;28;19939;-45
2022/10/24 03:43:02;;;;;;;;;;;;;;;19.46;100.00;98001.06;5060747;28;19931;-45
2022/10/24 03:45:27;;;;;;;;;;;;;;;19.72;100.00;98001.50;5057752;28;19924;-45
2022/10/24 03:47:52;;;;;;;;;;;;;;;19.89;100.00;98014.88;5058395;28;20387;-45
2022/10/24 03:50:17;;;;;;;;;;;;;;;19.63;100.00;98005.69;5059213;28;20538;-46
2022/10/24 03:52:43;;;;;;;;;;;;;;;19.17;100.00;97999.13;5058194;28;19965;-46
2022/10/24 03:55:08;;;;;;;;;;;;;;;19.42;100.00;97997.88;5060309;28;19921;-46
2022/10/24 03:57:33;;;;;;;;;;;;;;;19.74;100.00;98001.38;5058473;28;20407;-46
2022/10/24 03:59:59;;;;;;;;;;;;;;;19.47;100.00;97994.06;5057974;28;20011;-45
2022/10/24 04:02:24;;;;;;;;;;;;;;;19.80;100.00;97995.63;5059107;28;20388;-45
2022/10/24 04:04:49;;;;;;;;;;;;;;;19.40;100.00;97998.97;5059469;28;19920;-45
2022/10/24 04:07:14;;;;;;;;;;;;;;;19.61;100.00;98004.16;5056698;28;19924;-46
2022/10/24 04:09:40;;;;;;;;;;;;;;;19.11;100.00;98004.88;5057445;28;19920;-46
2022/10/24 04:12:05;;;;;;;;;;;;;;;19.61;100.00;98004.16;5060603;28;19927;-45
2022/10/24 04:14:30;;;;;;;;;;;;;;;20.30;100.00;98000.84;5060662;28;19923;-48
2022/10/24 04:16:55;;;;;;;;;;;;;;;19.17;100.00;98000.91;5058031;28;19927;-47
2022/10/24 04:19:21;;;;;;;;;;;;;;;19.20;100.00;98006.72;5060179;28;19979;-46
2022/10/24 04:21:46;;;;;;;;;;;;;;;19.61;100.00;98007.63;5059451;28;19931;-45
2022/10/24 04:24:12;;;;;;;;;;;;;;;19.77;100.00;98016.78;5059817;28;19974;-45
2022/10/24 04:26:37;;;;;;;;;;;;;;;20.09;100.00;98000.09;5060305;28;19916;-45
2022/10/24 04:29:02;;;;;;;;;;;;;;;20.15;100.00;98007.41;5060508;28;19916;-45
2022/10/24 04:31:28;;;;;;;;;;;;;;;20.02;100.00;98000.63;5059252;28;19916;-46
2022/10/24 04:33:53;;;;;;;;;;;;;;;20.29;100.00;98011.44;5060671;28;19962;-45
2022/10/24 04:36:19;;;;;;;;;;;;;;;20.23;100.00;97997.09;5059055;28;19923;-45
2022/10/24 04:38:45;;;;;;;;;;;;;;;20.37;100.00;98004.56;5059694;28;19924;-45
2022/10/24 04:41:10;;;;;;;;;;;;;;;20.68;100.00;97992.22;5058545;28;19925;-45
2022/10/24 04:43:35;;;;;;;;;;;;;;;20.00;100.00;97991.25;5059586;28;19947;-48
2022/10/24 04:46:01;;;;;;;;;;;;;;;19.93;100.00;97996.19;5057266;28;19920;-46
2022/10/24 04:48:26;;;;;;;;;;;;;;;19.89;100.00;97994.84;5056775;28;19933;-46
2022/10/24 04:50:52;;;;;;;;;;;;;;;19.54;100.00;98006.47;5057840;28;19917;-46
2022/10/24 04:53:17;;;;;;;;;;;;;;;20.10;100.00;98004.38;5060343;28;19923;-45
2022/10/24 04:55:43;;;;;;;;;;;;;;;19.85;100.00;97994.25;5054845;28;19921;-48
2022/10/24 04:58:08;;;;;;;;;;;;;;;19.63;100.00;97994.41;5057566;28;20011;-48
2022/10/24 05:00:33;;;;;;;;;;;;;;;19.30;100.00;97998.09;5058320;28;20309;-46
2022/10/24 05:02:59;;;;;;;;;;;;;;;19.89;100.00;97994.84;5059499;28;19924;-46
2022/10/24 05:05:24;;;;;;;;;;;;;;;20.16;100.00;97973.31;5059185;28;19970;-46
2022/10/24 05:07:49;;;;;;;;;;;;;;;20.20;100.00;97972.06;5057578;28;19970;-45
2022/10/24 05:10:15;;;;;;;;;;;;;;;20.14;100.00;97958.69;5059215;28;19917;-45
2022/10/24 05:12:40;;;;;;;;;;;;;;;20.20;100.00;97960.78;5059742;28;19916;-45
2022/10/24 05:15:06;;;;;;;;;;;;;;;19.77;100.00;97973.19;5058611;28;20011;-45
2022/10/24 05:17:31;;;;;;;;;;;;;;;19.77;100.00;97974.97;5059791;28;20389;-45
2022/10/24 05:19:56;;;;;;;;;;;;;;;19.29;100.00;97975.56;5059500;28;20015;-46
2022/10/24 05:22:22;;;;;;;;;;;;;;;20.09;100.00;97963.50;5059549;28;20500;-45
2022/10/24 05:24:48;;;;;;;;;;;;;;;20.19;100.00;97959.13;5059822;28;20331;-46
2022/10/24 05:27:13;;;;;;;;;;;;;;;20.08;100.00;97956.63;5060160;28;19927;-45
2022/10/24 05:29:38;;;;;;;;;;;;;;;20.44;100.00;97957.78;5056632;28;19912;-45
2022/10/24 05:32:03;;;;;;;;;;;;;;;19.79;100.00;97967.84;5058895;28;20827;-45
2022/10/24 05:34:29;;;;;;;;;;;;;;;19.85;100.00;97962.09;5058490;28;20389;-46
2022/10/24 05:36:54;;;;;;;;;;;;;;;20.11;100.00;97967.63;5059374;28;19916;-45
2022/10/24 05:39:19;;;;;;;;;;;;;;;19.94;100.00;97955.22;5057899;28;20409;-45
2022/10/24 05:41:44;;;;;;;;;;;;;;;20.08;100.00;97956.63;5059171;28;19931;-46
2022/10/24 05:44:10;;;;;;;;;;;;;;;19.63;100.00;97958.66;5057517;28;19924;-46
2022/10/24 05:46:35;;;;;;;;;;;;;;;19.63;100.00;97966.50;5058717;28;19920;-46
2022/10/24 05:49:01;;;;;;;;;;;;;;;19.89;100.00;97968.69;5056639;28;19916;-46
2022/10/24 05:51:26;;;;;;;;;;;;;;;19.79;100.00;97963.44;5059606;28;19913;-46
2022/10/24 05:53:51;;;;;;;;;;;;;;;20.22;100.00;97974.53;5059540;28;19917;-45
2022/10/24 05:56:16;;;;;;;;;;;;;;;20.00;100.00;97965.97;5059575;28;19916;-47
2022/10/24 05:58:42;;;;;;;;;;;;;;;19.96;100.00;97985.50;5058763;28;19993;-45
2022/10/24 06:01:07;;;;;;;;;;;;;;;19.79;100.00;97983.50;5058414;28;19927;-45
2022/10/24 06:03:32;;;;;;;;;;;;;;;19.77;100.00;97985.41;5058822;28;21055;-46
2022/10/24 06:06:01;;;;;;;;;;;;;;;19.82;100.00;97993.72;5057721;28;19964;-46
2022/10/24 06:08:27;;;;;;;;;;;;;;;19.90;100.00;97995.66;5057868;28;19924;-46
2022/10/24 06:10:52;;;;;;;;;;;;;;;20.39;100.00;97984.34;5059137;28;19916;-45
2022/10/24 06:13:17;;;;;;;;;;;;;;;19.90;100.00;97987.81;5059529;28;19916;-46
2022/10/24 06:15:43;;;;;;;;;;;;;;;20.23;100.00;97990.09;5061826;28;19916;-46
2022/10/24 06:18:08;;;;;;;;;;;;;;;20.11;100.00;97995.56;5062858;28;20285;-45
2022/10/24 06:20:33;;;;;;;;;;;;;;;19.77;100.00;98001.09;5061334;28;19951;-45
2022/10/24 06:22:58;;;;;;;;;;;;;;;20.11;100.00;98001.63;5062926;28;19913;-45
2022/10/24 06:25:24;;;;;;;;;;;;;;;19.99;100.00;98006.13;5063388;28;19924;-46
2022/10/24 06:27:50;;;;;;;;;;;;;;;20.00;100.00;98006.94;5062496;28;19916;-45
2022/10/24 06:30:16;;;;;;;;;;;;;;;20.15;100.00;98010.03;5061004;28;19920;-46
2022/10/24 06:32:41;;;;;;;;;;;;;;;20.26;100.00;98004.69;5063089;28;20007;-45
2022/10/24 06:35:06;;;;;;;;;;;;;;;20.39;100.00;98009.66;5063139;28;19999;-46
2022/10/24 06:37:32;;;;;;;;;;;;;;;20.01;100.00;98013.84;5062026;28;19951;-45
2022/10/24 06:39:57;;;;;;;;;;;;;;;20.17;100.00;98003.69;5062155;28;19916;-45
2022/10/24 06:42:23;;;;;;;;;;;;;;;19.83;100.00;98011.84;5062148;28;20494;-45
2022/10/24 06:44:50;;;;;;;;;;;;;;;20.39;100.00;98007.88;5061368;28;19917;-46
2022/10/24 06:47:15;;;;;;;;;;;;;;;20.30;100.00;98008.69;5059218;28;19955;-45
2022/10/24 06:49:40;;;;;;;;;;;;;;;20.31;100.00;98020.78;5060605;28;20622;-45
2022/10/24 06:52:05;;;;;;;;;;;;;;;20.12;100.00;98028.59;5062995;28;19917;-45
2022/10/24 06:54:32;;;;;;;;;;;;;;;20.60;100.00;98030.53;5062909;28;19970;-45
2022/10/24 06:56:57;;;;;;;;;;;;;;;20.63;100.00;98031.06;5062470;28;19912;-45
2022/10/24 06:59:23;;;;;;;;;;;;;;;20.38;100.00;98037.59;5061667;28;19919;-45
2022/10/24 07:01:48;;;;;;;;;;;;;;;20.58;100.00;98037.66;5062626;28;19963;-45
2022/10/24 07:04:13;;;;;;;;;;;;;;;20.95;100.00;98039.63;5061976;28;19939;-46
2022/10/24 07:06:38;;;;;;;;;;;;;;;20.46;100.00;98045.59;5060799;28;20294;-45
2022/10/24 07:09:04;;;;;;;;;;;;;;;20.49;100.00;98049.75;5059486;28;20027;-45
2022/10/24 07:11:30;;;;;;;;;;;;;;;20.47;100.00;98055.09;5061603;28;19986;-45
2022/10/24 07:13:55;;;;;;;;;;;;;;;20.76;100.00;98051.72;5061995;28;19922;-46
2022/10/24 07:16:21;;;;;;;;;;;;;;;21.03;100.00;98056.28;5062492;28;19920;-45
2022/10/24 07:18:47;;;;;;;;;;;;;;;20.80;100.00;98067.97;5061880;28;19919;-45
2022/10/24 07:21:25;;;;;;;;;;;;;;;21.01;100.00;98067.88;5061926;28;19921;-46
2022/10/24 07:23:51;;;;;;;;;;;;;;;21.14;100.00;98075.41;5062130;28;19916;-44
2022/10/24 07:26:17;;;;;;;;;;;;;;;20.95;100.00;98071.84;5061785;28;21052;-45
2022/10/24 07:28:44;;;;;;;;;;;;;;;20.60;100.00;98073.19;5060117;28;19924;-45
2022/10/24 07:31:12;;;;;;;;;;;;;;;21.21;100.00;98063.41;5059519;28;19930;-45
2022/10/24 07:33:38;;;;;;;;;;;;;;;20.34;100.00;98078.03;5061951;28;20959;-45
2022/10/24 07:36:03;;;;;;;;;;;;;;;20.91;100.00;98072.25;5061474;28;19917;-46
2022/10/24 07:38:28;;;;;;;;;;;;;;;21.02;100.00;98083.41;5061004;28;19916;-46
2022/10/24 07:40:54;;;;;;;;;;;;;;;20.65;100.00;98075.41;5061629;28;19920;-45
2022/10/24 07:43:19;;;;;;;;;;;;;;;20.87;100.00;98059.44;5062134;28;19912;-45
2022/10/24 07:45:44;;;;;;;;;;;;;;;20.60;100.00;98069.75;5059399;28;19923;-45
2022/10/24 07:48:09;;;;;;;;;;;;;;;20.69;100.00;98071.56;5059456;28;19931;-45
2022/10/24 07:50:39;;;;;;;;;;;;;;;20.94;100.00;98061.50;5060551;28;19932;-45
2022/10/24 07:53:05;;;;;;;;;;;;;;;20.51;100.00;98065.31;5061640;28;19916;-46
2022/10/24 07:55:30;;;;;;;;;;;;;;;20.89;100.00;98062.75;5059915;28;19923;-45
2022/10/24 07:57:55;;;;;;;;;;;;;;;20.97;100.00;98063.84;5061380;28;19920;-45
2022/10/24 08:00:20;;;;;;;;;;;;;;;20.71;100.00;98068.78;5061114;28;19916;-45
2022/10/24 08:02:46;;;;;;;;;;;;;;;20.78;100.00;98065.50;5061672;28;19988;-46
2022/10/24 08:05:11;;;;;;;;;;;;;;;21.16;100.00;98055.97;5061312;28;20012;-46
2022/10/24 08:07:37;;;;;;;;;;;;;;;20.94;100.00;98053.66;5059590;28;19924;-45
2022/10/24 08:10:03;;;;;;;;;;;;;;;21.30;100.00;98050.34;5060578;28;20338;-45
2022/10/24 08:12:28;;;;;;;;;;;;;;;21.18;100.00;98048.81;5060716;28;19917;-45
2022/10/24 08:14:54;;;;;;;;;;;;;;;21.11;100.00;98050.34;5060333;28;19973;-45
2022/10/24 08:17:20;;;;;;;;;;;;;;;20.98;100.00;98049.78;5061666;28;20320;-47
2022/10/24 08:19:45;;;;;;;;;;;;;;;20.73;100.00;98062.44;5059797;28;19921;-45
2022/10/24 08:22:11;;;;;;;;;;;;;;;21.19;100.00;98053.09;5061307;28;19967;-45
2022/10/24 08:24:36;;;;;;;;;;;;;;;21.01;100.00;98062.63;5058907;28;19952;-45
2022/10/24 08:27:01;;;;;;;;;;;;;;;20.22;100.00;98079.13;5060898;28;19948;-44
2022/10/24 08:29:27;;;;;;;;;;;;;;;20.86;100.00;98067.44;5059054;28;19952;-45
2022/10/24 08:31:52;;;;;;;;;;;;;;;20.96;100.00;98072.66;5059839;28;20366;-46
2022/10/24 08:34:18;;;;;;;;;;;;;;;20.83;100.00;98079.00;5059384;28;19993;-45
2022/10/24 08:36:43;;;;;;;;;;;;;;;20.79;100.00;98085.47;5060038;28;19916;-46
2022/10/24 08:39:09;;;;;;;;;;;;;;;21.05;100.00;98085.78;5059794;28;19986;-45
2022/10/24 08:41:42;;;;;;;;;;;;;;;21.48;100.00;98088.91;5060850;28;19924;-45
2022/10/24 08:44:25;;;;;;;;;;;;;;;21.69;100.00;98086.97;5058910;28;20359;-45
2022/10/24 08:46:53;;;;;;;;;;;;;;;21.43;100.00;98085.91;5058569;28;21056;-46
2022/10/24 08:49:39;;;;;;;;;;;;;;;21.24;100.00;98092.78;5059354;28;20277;-45
2022/10/24 08:52:16;;;;;;;;;;;;;;;21.22;100.00;98088.66;5060202;28;19923;-45
2022/10/24 08:54:41;;;;;;;;;;;;;;;20.93;100.00;98097.31;5058580;28;20411;-45
2022/10/24 08:57:09;;;;;;;;;;;;;;;20.98;100.00;98096.91;5044741;28;19963;-45
2022/10/24 08:59:34;;;;;;;;;;;;;;;20.98;100.00;98091.66;5058434;28;19920;-46
2022/10/24 09:02:01;;;;;;;;;;;;;;;21.95;100.00;98081.09;5058994;28;20794;-45
2022/10/24 09:04:27;;;;;;;;;;;;;;;21.51;100.00;98084.25;5058898;28;19920;-45
2022/10/24 09:06:53;;;;;;;;;;;;;;;21.37;100.00;98091.66;5058076;28;19916;-45
2022/10/24 09:09:28;;;;;;;;;;;;;;;21.40;100.00;98078.31;5059960;28;19916;-45
2022/10/24 09:12:00;;;;;;;;;;;;;;;20.58;100.00;98097.84;5057983;28;19921;-44
2022/10/24 09:14:27;;;;;;;;;;;;;;;21.19;100.00;98083.69;5059314;28;19954;-45
2022/10/24 09:16:55;;;;;;;;;;;;;;;21.48;100.00;98074.06;5059941;28;19916;-45
2022/10/24 09:19:22;;;;;;;;;;;;;;;21.91;100.00;98084.94;5059454;28;19955;-44
2022/10/24 09:21:47;;;;;;;;;;;;;;;21.20;100.00;98091.41;5056292;28;19931;-45
2022/10/24 09:24:23;;;;;;;;;;;;;;;21.84;100.00;98086.50;5058390;28;19912;-44
2022/10/24 09:26:48;;;;;;;;;;;;;;;21.39;100.00;98079.25;5056603;28;19920;-45
2022/10/24 09:29:14;;;;;;;;;;;;;;;21.37;100.00;98086.41;5057718;28;19962;-45
2022/10/24 09:31:39;;;;;;;;;;;;;;;21.19;100.00;98083.69;5057089;28;19916;-45
2022/10/24 09:34:05;;;;;;;;;;;;;;;21.66;100.00;98071.50;5058944;28;19927;-45
2022/10/24 09:36:31;;;;;;;;;;;;;;;20.94;100.00;98087.66;5060373;28;19916;-45
2022/10/24 09:38:56;;;;;;;;;;;;;;;20.87;100.00;98090.84;5056639;28;19925;-45
2022/10/24 09:41:22;;;;;;;;;;;;;;;21.04;100.00;98080.66;5054826;28;20258;-45
2022/10/24 09:43:53;;;;;;;;;;;;;;;20.75;100.00;98106.81;5057123;28;19916;-45
2022/10/24 09:46:26;;;;;;;;;;;;;;;20.69;100.00;98108.19;5057411;28;19966;-45
2022/10/24 09:48:54;;;;;;;;;;;;;;;20.70;100.00;98119.47;5056613;28;19916;-45
2022/10/24 09:51:32;;;;;;;;;;;;;;;21.07;100.00;98106.56;5056768;28;20009;-45
2022/10/24 09:54:06;;;;;;;;;;;;;;;21.37;100.00;98115.22;5039750;28;20010;-44
2022/10/24 09:56:39;;;;;;;;;;;;;;;21.23;100.00;98127.81;5059653;28;19927;-45
2022/10/24 09:59:22;;;;;;;;;;;;;;;20.98;100.00;98123.09;5056802;28;19950;-44
2022/10/24 10:01:48;;;;;;;;;;;;;;;20.44;100.00;98138.25;5057074;28;19925;-46
2022/10/24 10:04:17;;;;;;;;;;;;;;;20.53;100.00;98120.94;5047818;28;20005;-45
2022/10/24 10:06:46;;;;;;;;;;;;;;;21.21;100.00;98127.13;5055246;28;19920;-45
2022/10/24 10:09:12;;;;;;;;;;;;;;;21.03;100.00;98105.19;5055999;28;19924;-46
2022/10/24 10:11:37;;;;;;;;;;;;;;;21.93;100.00;98119.72;5055934;28;19932;-46
2022/10/24 10:14:03;;;;;;;;;;;;;;;21.90;100.00;98123.47;5055932;28;19977;-45
2022/10/24 10:16:29;;;;;;;;;;;;;;;21.50;100.00;98129.72;5056942;28;20381;-45
2022/10/24 10:19:02;;;;;;;;;;;;;;;21.11;100.00;98131.50;5057297;28;19948;-45
2022/10/24 10:21:28;;;;;;;;;;;;;;;20.69;100.00;98134.34;5058702;28;19999;-45
2022/10/24 10:23:54;;;;;;;;;;;;;;;20.73;100.00;98137.50;5057633;28;20015;-45
2022/10/24 10:26:22;;;;;;;;;;;;;;;20.89;100.00;98146.50;5058177;28;19947;-44
2022/10/24 10:28:50;;;;;;;;;;;;;;;21.37;100.00;98144.03;5058376;28;20638;-45
2022/10/24 10:31:16;;;;;;;;;;;;;;;21.23;100.00;98143.53;5058010;28;19947;-45
2022/10/24 10:33:49;;;;;;;;;;;;;;;21.74;100.00;98140.75;5056270;28;20274;-45
2022/10/24 10:36:26;;;;;;;;;;;;;;;21.51;100.00;98151.53;5054220;28;20432;-46
2022/10/24 10:38:55;;;;;;;;;;;;;;;21.81;100.00;98152.31;5055818;28;19974;-45
2022/10/24 10:41:20;;;;;;;;;;;;;;;21.23;100.00;98154.00;5057001;28;19928;-44
2022/10/24 10:44:06;;;;;;;;;;;;;;;21.05;100.00;98156.44;5055758;28;19920;-45
2022/10/24 10:47:04;;;;;;;;;;;;;;;21.86;100.00;98155.34;5057731;28;19912;-46
2022/10/24 10:49:38;;;;;;;;;;;;;;;22.17;100.00;98149.84;5045201;28;19916;-45
2022/10/24 10:52:10;;;;;;;;;;;;;;;21.82;100.00;98161.81;5058366;28;20431;-44
2022/10/24 10:54:53;;;;;;;;;;;;;;;21.76;100.00;98170.25;5057267;28;20348;-45
2022/10/24 10:57:37;;;;;;;;;;;;;;;22.35;100.00;98166.53;5059190;28;19985;-45
2022/10/24 11:00:10;;;;;;;;;;;;;;;21.90;100.00;98162.78;5058810;28;20396;-45
2022/10/24 11:02:36;;;;;;;;;;;;;;;22.09;100.00;98171.56;5060379;28;20042;-45
2022/10/24 11:05:07;;;;;;;;;;;;;;;21.98;100.00;98172.53;5061455;28;20145;-45
2022/10/24 11:07:44;;;;;;;;;;;;;;;22.17;100.00;98165.59;5063188;28;19922;-44
2022/10/24 11:10:13;;;;;;;;;;;;;;;22.04;100.00;98169.38;5058645;28;19921;-44
2022/10/24 11:12:42;;;;;;;;;;;;;;;21.47;100.00;98171.09;5059903;28;19917;-45
2022/10/24 11:15:25;;;;;;;;;;;;;;;22.01;100.00;98174.91;5059876;28;19966;-44
2022/10/24 11:17:55;;;;;;;;;;;;;;;22.17;100.00;98183.94;5061089;28;19923;-45
2022/10/24 11:20:23;;;;;;;;;;;;;;;21.65;100.00;98174.69;5058976;28;19921;-44
2022/10/24 11:22:51;;;;;;;;;;;;;;;22.21;100.00;98177.44;5061986;28;19925;-44
2022/10/24 11:25:23;;;;;;;;;;;;;;;22.41;100.00;98168.56;5060398;28;20458;-44
2022/10/24 11:27:53;;;;;;;;;;;;;;;22.24;100.00;98179.84;5060119;28;19920;-44
2022/10/24 11:30:28;;;;;;;;;;;;;;;22.51;100.00;98182.50;5059164;28;19916;-44
2022/10/24 11:32:54;;;;;;;;;;;;;;;22.47;100.00;98181.13;5062066;28;20011;-44
2022/10/24 11:35:32;;;;;;;;;;;;;;;22.25;100.00;98184.09;5061164;28;20006;-44
2022/10/24 11:38:17;;;;;;;;;;;;;;;21.60;100.00;98197.84;5061376;28;19916;-44
2022/10/24 11:40:43;;;;;;;;;;;;;;;21.49;100.00;98206.69;5060714;28;19916;-44
2022/10/24 11:43:17;;;;;;;;;;;;;;;20.75;100.00;98227.16;5062166;28;20010;-44
2022/10/24 11:45:42;;;;;;;;;;;;;;;20.96;100.00;98237.56;5059417;28;20512;-45
2022/10/24 11:48:24;;;;;;;;;;;;;;;20.67;100.00;98239.13;5060611;28;20020;-44
2022/10/24 11:50:51;;;;;;;;;;;;;;;21.01;100.00;98225.75;5059374;28;19956;-44
2022/10/24 11:53:24;;;;;;;;;;;;;;;21.99;100.00;98216.16;5060146;28;19920;-44
2022/10/24 11:55:52;;;;;;;;;;;;;;;22.12;100.00;98214.06;5060274;28;19916;-45
2022/10/24 11:58:18;;;;;;;;;;;;;;;21.55;100.00;98214.94;5059166;28;19961;-44
2022/10/24 12:00:43;;;;;;;;;;;;;;;21.39;100.00;98223.31;5059938;28;19951;-45
2022/10/24 12:03:25;;;;;;;;;;;;;;;21.69;100.00;98223.22;5061633;28;21131;-45
2022/10/24 12:05:57;;;;;;;;;;;;;;;21.38;100.00;98214.63;5060725;28;19917;-45
2022/10/24 12:08:41;;;;;;;;;;;;;;;21.86;100.00;98211.19;5059696;28;19913;-44
2022/10/24 12:11:07;;;;;;;;;;;;;;;21.44;100.00;98221.13;5061029;28;19916;-44
2022/10/24 12:13:48;;;;;;;;;;;;;;;22.44;100.00;98215.53;5060349;28;19916;-44
2022/10/24 12:16:32;;;;;;;;;;;;;;;22.80;100.00;98206.94;5059584;28;19932;-44
2022/10/24 12:18:58;;;;;;;;;;;;;;;21.75;100.00;98216.59;5061054;28;20062;-44
2022/10/24 12:21:24;;;;;;;;;;;;;;;21.85;100.00;98227.06;5059157;28;19920;-44
2022/10/24 12:23:54;;;;;;;;;;;;;;;22.11;100.00;98228.13;5060498;28;19932;-44
2022/10/24 12:26:20;;;;;;;;;;;;;;;22.17;100.00;98210.19;5059301;28;19916;-45
2022/10/24 12:29:01;;;;;;;;;;;;;;;21.95;100.00;98222.66;5059567;28;19920;-45
2022/10/24 12:31:28;;;;;;;;;;;;;;;21.20;100.00;98224.94;5059083;28;19917;-44
2022/10/24 12:34:12;;;;;;;;;;;;;;;21.65;100.00;98224.47;5059590;28;19939;-44
2022/10/24 12:36:56;;;;;;;;;;;;;;;21.72;100.00;98222.94;5059664;28;19927;-44
2022/10/24 12:39:28;;;;;;;;;;;;;;;22.32;100.00;98221.91;5059494;28;20273;-45